Time;durP1;ratioP1;P1;durP2;ratioP2;P2;SDS_P1;SDS_P2;PMS_P1;PMS_P2;Temp;Humidity;BMP_temperature;BMP_pressure;BME280_temperature;BME280_humidity;BME280_pressure;Samples;Min_cycle;Max_cycle;Signal;HPM_P1;HPM_P2
2022/05/09 00:02:09;;;;;;;14.13;8.60;;;;;;;9.62;82.16;94514.69;4955705;28;20046;-61
2022/05/09 00:04:36;;;;;;;13.80;8.15;;;;;;;9.67;81.83;94519.78;4973638;28;20059;-65
2022/05/09 00:07:05;;;;;;;12.90;8.40;;;;;;;9.33;83.72;94517.47;4973030;28;20288;-64
2022/05/09 00:09:32;;;;;;;13.10;8.30;;;;;;;9.48;83.09;94508.06;4973235;28;20069;-62
2022/05/09 00:11:59;;;;;;;11.98;8.25;;;;;;;9.53;83.29;94502.19;4972751;28;20061;-61
2022/05/09 00:14:26;;;;;;;12.05;8.20;;;;;;;9.51;83.20;94503.75;4973537;28;20046;-64
2022/05/09 00:16:53;;;;;;;12.95;8.40;;;;;;;9.52;83.61;94508.06;4977665;28;20529;-60
2022/05/09 00:19:23;;;;;;;14.13;8.50;;;;;;;9.66;82.99;94496.28;4992372;28;20046;-61
2022/05/09 00:21:52;;;;;;;12.07;8.40;;;;;;;9.86;82.23;94499.34;4992784;28;20045;-60
2022/05/09 00:24:20;;;;;;;13.43;8.40;;;;;;;9.96;81.94;94504.81;4992263;28;20057;-61
2022/05/09 00:26:49;;;;;;;13.68;8.55;;;;;;;9.90;81.52;94506.41;4992825;28;20050;-63
2022/05/09 00:29:17;;;;;;;13.80;8.27;;;;;;;10.01;81.52;94495.41;4991977;28;20046;-62
2022/05/09 00:31:46;;;;;;;12.07;8.30;;;;;;;10.15;80.67;94494.56;4975506;28;20042;-61
2022/05/09 00:34:17;;;;;;;13.80;8.57;;;;;;;10.28;80.11;94492.13;4992018;28;20049;-61
2022/05/09 00:36:45;;;;;;;12.13;8.05;;;;;;;10.38;79.74;94492.13;4992546;28;20046;-61
2022/05/09 00:39:13;;;;;;;12.98;8.20;;;;;;;10.38;79.49;94489.38;4991929;28;20047;-62
2022/05/09 00:41:42;;;;;;;12.48;8.10;;;;;;;10.41;79.27;94496.03;4992273;28;20052;-66
2022/05/09 00:44:19;;;;;;;12.75;8.38;;;;;;;10.42;79.36;94478.38;4992039;28;20052;-63
2022/05/09 00:46:51;;;;;;;13.07;8.63;;;;;;;10.47;79.25;94488.94;4992636;28;20046;-65
2022/05/09 00:49:23;;;;;;;13.32;8.80;;;;;;;10.46;79.27;94486.59;4991966;28;20462;-65
2022/05/09 00:51:59;;;;;;;14.23;8.82;;;;;;;10.52;79.33;94491.28;4992497;28;20042;-61
2022/05/09 00:54:30;;;;;;;13.23;8.68;;;;;;;10.54;79.16;94491.66;4991370;28;20073;-61
2022/05/09 00:57:17;;;;;;;15.02;8.82;;;;;;;10.56;78.98;94488.50;4991672;28;20052;-59
2022/05/09 00:59:46;;;;;;;13.80;8.50;;;;;;;10.54;78.89;94501.81;4992222;28;20056;-62
2022/05/09 01:02:15;;;;;;;30.25;18.40;;;;;;;10.55;79.25;94497.91;4974155;28;20058;-60
2022/05/09 01:04:53;;;;;;;16.90;10.88;;;;;;;10.52;79.10;94505.00;4992007;28;20042;-64
2022/05/09 01:07:22;;;;;;;13.63;8.98;;;;;;;10.50;79.53;94501.88;4991639;28;20044;-61
2022/05/09 01:09:49;;;;;;;13.35;9.07;;;;;;;10.48;79.96;94501.47;4991686;28;20058;-64
2022/05/09 01:12:28;;;;;;;16.23;9.37;;;;;;;10.48;79.87;94498.72;4990861;28;20057;-63
2022/05/09 01:14:59;;;;;;;14.60;9.27;;;;;;;10.51;79.93;94494.41;4991937;28;20042;-60
2022/05/09 01:17:27;;;;;;;16.13;10.02;;;;;;;10.49;80.11;94494.81;4990876;28;20104;-60
2022/05/09 01:19:58;;;;;;;14.95;9.32;;;;;;;10.54;79.73;94499.09;4991718;28;20069;-59
2022/05/09 01:22:28;;;;;;;14.43;9.52;;;;;;;10.43;80.44;94490.16;4990894;28;21442;-59
2022/05/09 01:25:02;;;;;;;14.20;9.50;;;;;;;10.48;80.46;94492.47;4991774;28;20479;-58
2022/05/09 01:27:30;;;;;;;27.10;16.40;;;;;;;10.54;80.53;94496.34;4990459;28;21493;-60
2022/05/09 01:30:02;;;;;;;34.80;19.42;;;;;;;10.56;80.04;94488.50;4991059;28;20047;-58
2022/05/09 01:32:34;;;;;;;15.70;10.05;;;;;;;10.61;79.90;94490.81;4991584;28;20054;-59
2022/05/09 01:35:22;;;;;;;15.10;9.27;;;;;;;10.61;79.65;94485.34;4974493;28;20534;-60
2022/05/09 01:37:55;;;;;;;14.10;9.67;;;;;;;10.65;79.23;94488.84;4991423;28;20046;-66
2022/05/09 01:40:21;;;;;;;14.95;9.45;;;;;;;10.65;79.33;94493.56;4990763;28;21026;-60
2022/05/09 01:42:48;;;;;;;15.50;9.05;;;;;;;10.66;78.94;94498.63;4991179;28;20053;-60
2022/05/09 01:45:15;;;;;;;17.23;9.38;;;;;;;10.33;79.02;94489.78;4990601;28;20057;-61
2022/05/09 01:50:27;;;;;;;14.53;9.90;;;;;;;10.08;81.30;94492.63;4990227;28;21954;-59
2022/05/09 01:52:54;;;;;;;15.48;9.30;;;;;;;10.13;80.73;94496.91;4990974;28;20387;-60
2022/05/09 01:55:22;;;;;;;14.90;9.05;;;;;;;10.18;80.83;94499.22;4990507;28;20418;-62
2022/05/09 01:57:49;;;;;;;13.15;9.05;;;;;;;10.13;80.41;94489.47;4991165;28;20376;-61
2022/05/09 02:00:17;;;;;;;23.65;14.75;;;;;;;10.16;80.52;94493.38;4990505;28;20038;-60
2022/05/09 02:02:43;;;;;;;17.77;10.60;;;;;;;10.15;80.14;94486.34;4991111;28;20491;-60
2022/05/09 02:05:11;;;;;;;15.05;9.77;;;;;;;10.17;80.21;94492.97;4990417;28;20046;-64
2022/05/09 02:07:38;;;;;;;15.18;9.63;;;;;;;10.18;80.15;94491.81;4990934;28;20042;-60
2022/05/09 02:10:05;;;;;;;14.52;9.40;;;;;;;10.23;80.20;94490.59;4990253;28;20045;-59
2022/05/09 02:12:33;;;;;;;14.98;9.25;;;;;;;10.24;79.84;94486.69;4990565;28;20450;-60
2022/05/09 02:14:59;;;;;;;13.43;9.30;;;;;;;10.31;79.96;94489.41;4990337;28;20532;-61
2022/05/09 02:17:29;;;;;;;14.27;8.98;;;;;;;10.36;79.61;94488.22;4990663;28;20068;-63
2022/05/09 02:19:56;;;;;;;12.52;9.10;;;;;;;10.41;79.10;94496.03;4965700;28;20047;-60
2022/05/09 02:22:22;;;;;;;14.18;9.18;;;;;;;10.42;79.24;94492.09;4978334;28;20066;-64
2022/05/09 02:24:49;;;;;;;14.80;10.23;;;;;;;10.33;78.97;94491.75;4970161;28;20062;-61
2022/05/09 02:27:16;;;;;;;13.17;8.60;;;;;;;10.15;80.04;94489.84;4970826;28;20054;-63
2022/05/09 02:29:43;;;;;;;12.88;8.85;;;;;;;10.04;80.25;94493.81;4938305;28;20039;-60
2022/05/09 02:32:11;;;;;;;12.50;9.05;;;;;;;9.63;81.13;94500.59;4970440;28;20049;-62
2022/05/09 02:34:38;;;;;;;16.13;9.80;;;;;;;9.53;81.94;94495.91;4971192;28;20055;-62
2022/05/09 02:37:05;;;;;;;26.25;16.63;;;;;;;9.52;82.28;94497.88;4970508;28;20635;-63
2022/05/09 02:39:32;;;;;;;27.17;16.30;;;;;;;9.51;81.77;94492.78;4971408;28;20383;-60
2022/05/09 02:42:00;;;;;;;16.30;10.57;;;;;;;9.27;82.30;94505.34;4970445;28;20050;-64
2022/05/09 02:44:33;;;;;;;14.82;10.18;;;;;;;9.28;82.92;94498.72;4971089;28;20063;-60
2022/05/09 02:47:00;;;;;;;16.38;10.32;;;;;;;9.28;82.74;94495.97;4970593;28;20073;-64
2022/05/09 02:49:26;;;;;;;18.27;12.98;;;;;;;9.05;83.94;94507.31;4970989;28;20039;-63
2022/05/09 02:51:53;;;;;;;18.37;10.70;;;;;;;8.95;83.89;94497.91;4971128;28;20055;-60
2022/05/09 02:54:20;;;;;;;18.10;12.23;;;;;;;8.97;83.86;94506.53;4970362;28;20053;-64
2022/05/09 02:56:47;;;;;;;16.77;11.60;;;;;;;8.95;83.27;94504.19;4971099;28;20050;-60
2022/05/09 02:59:14;;;;;;;19.70;11.52;;;;;;;8.97;84.10;94514.72;4953061;28;20069;-60
2022/05/09 03:01:40;;;;;;;16.20;11.18;;;;;;;8.95;83.96;94511.59;4970926;28;20054;-66
2022/05/09 03:06:52;;;;;;;17.23;10.30;;;;;;;8.87;84.70;94510.03;4970969;28;20057;-60
2022/05/09 03:09:19;;;;;;;16.92;10.35;;;;;;;8.83;84.74;94506.53;4953447;28;20035;-60
2022/05/09 03:11:46;;;;;;;17.98;10.40;;;;;;;8.76;84.62;94502.59;4970274;28;20046;-62
2022/05/09 03:14:12;;;;;;;16.08;10.85;;;;;;;8.74;84.74;94506.91;4970131;28;20427;-61
2022/05/09 03:16:39;;;;;;;16.17;11.00;;;;;;;8.73;85.32;94503.41;4973346;28;20514;-61
2022/05/09 03:19:06;;;;;;;47.95;27.15;;;;;;;8.71;85.66;94510.41;4989638;28;20523;-63
2022/05/09 03:21:33;;;;;;;17.38;10.70;;;;;;;8.60;85.23;94511.19;4989824;28;20047;-60
2022/05/09 03:23:59;;;;;;;15.25;9.68;;;;;;;8.44;85.09;94513.50;4989631;28;20487;-62
2022/05/09 03:26:26;;;;;;;16.90;10.18;;;;;;;8.34;87.71;94512.25;4987875;28;20407;-64
2022/05/09 03:28:54;;;;;;;17.30;10.90;;;;;;;8.33;87.61;94516.19;4981861;28;20056;-63
2022/05/09 03:31:20;;;;;;;17.50;10.63;;;;;;;8.42;88.27;94510.34;4970250;28;20122;-63
2022/05/09 03:33:47;;;;;;;17.55;11.20;;;;;;;8.45;88.41;94514.25;4971496;28;20496;-62
2022/05/09 03:36:14;;;;;;;16.25;10.60;;;;;;;8.46;86.96;94507.63;4973733;28;20407;-60
2022/05/09 03:38:41;;;;;;;17.30;10.85;;;;;;;8.43;86.59;94511.13;4974170;28;20403;-60
2022/05/09 03:41:08;;;;;;;17.17;10.60;;;;;;;8.34;87.66;94509.53;4973265;28;20047;-62
2022/05/09 03:43:35;;;;;;;16.83;10.40;;;;;;;8.37;87.18;94510.69;4974001;28;20420;-60
2022/05/09 03:46:02;;;;;;;16.45;11.02;;;;;;;8.29;86.69;94509.91;4973346;28;20042;-64
2022/05/09 03:48:29;;;;;;;17.10;10.73;;;;;;;8.28;87.28;94511.06;4974014;28;20045;-62
2022/05/09 03:50:56;;;;;;;17.10;11.27;;;;;;;8.29;87.43;94512.66;4973910;28;20043;-59
2022/05/09 03:53:24;;;;;;;16.53;10.83;;;;;;;8.15;87.64;94515.34;4972871;28;21028;-59
2022/05/09 03:55:51;;;;;;;19.27;11.85;;;;;;;8.15;86.75;94520.81;4974047;28;20039;-60
2022/05/09 03:58:19;;;;;;;18.02;10.70;;;;;;;8.15;86.48;94518.84;4973157;28;20051;-63
2022/05/09 04:00:46;;;;;;;16.67;10.90;;;;;;;8.23;87.07;94525.13;4973794;28;20039;-64
2022/05/09 04:03:13;;;;;;;18.05;11.52;;;;;;;8.12;86.96;94516.09;4973357;28;20055;-59
2022/05/09 04:05:41;;;;;;;19.20;11.50;;;;;;;7.71;88.25;94524.50;4973713;28;20049;-63
2022/05/09 04:08:11;;;;;;;15.88;10.57;;;;;;;7.96;87.25;94514.47;4973025;28;20058;-59
2022/05/09 04:10:40;;;;;;;17.80;11.02;;;;;;;8.10;87.11;94519.22;4973331;28;20447;-59
2022/05/09 04:13:07;;;;;;;20.33;11.07;;;;;;;8.13;87.35;94520.38;4971685;28;20407;-63
2022/05/09 04:18:21;;;;;;;21.73;11.20;;;;;;;8.12;87.59;94527.81;4988679;28;20042;-59
2022/05/09 04:20:50;;;;;;;22.65;13.48;;;;;;;8.30;87.01;94527.88;4992855;28;20046;-59
2022/05/09 04:23:18;;;;;;;17.25;11.02;;;;;;;8.40;86.19;94535.31;4992146;28;20403;-61
2022/05/09 04:25:45;;;;;;;16.42;10.65;;;;;;;8.49;86.07;94532.28;4992733;28;20061;-60
2022/05/09 04:28:15;;;;;;;18.17;11.13;;;;;;;8.57;85.82;94533.06;4982921;28;20053;-61
2022/05/09 04:30:42;;;;;;;21.73;11.30;;;;;;;8.57;85.62;94528.38;4976246;28;20488;-61
2022/05/09 04:33:09;;;;;;;17.30;11.30;;;;;;;8.66;85.32;94538.94;4972573;28;20038;-61
2022/05/09 04:35:39;;;;;;;21.80;12.45;;;;;;;8.51;84.31;94524.47;4972925;28;20066;-61
2022/05/09 04:38:06;;;;;;;19.25;11.95;;;;;;;8.58;84.82;94529.94;4972384;28;20046;-60
2022/05/09 04:40:37;;;;;;;21.30;12.07;;;;;;;8.52;84.63;94530.72;4972962;28;20061;-61
2022/05/09 04:43:04;;;;;;;20.53;12.73;;;;;;;8.45;84.93;94534.22;4972423;28;20057;-62
2022/05/09 04:45:32;;;;;;;17.40;11.52;;;;;;;8.68;84.21;94541.31;4955084;28;20043;-61
2022/05/09 04:48:00;;;;;;;22.10;13.98;;;;;;;8.64;83.95;94535.03;4972559;28;20345;-60
2022/05/09 04:50:28;;;;;;;64.82;24.00;;;;;;;8.78;82.21;94546.00;4972508;28;20249;-62
2022/05/09 04:52:55;;;;;;;39.05;16.27;;;;;;;8.82;82.81;94533.09;4972748;28;20047;-62
2022/05/09 04:55:21;;;;;;;25.37;13.80;;;;;;;8.78;82.97;94535.06;4955051;28;20324;-63
2022/05/09 04:57:50;;;;;;;22.33;12.63;;;;;;;8.83;83.30;94550.31;4972502;28;20069;-62
2022/05/09 05:00:21;;;;;;;42.03;17.55;;;;;;;8.91;82.47;94541.72;4972064;28;20042;-63
2022/05/09 05:02:48;;;;;;;39.70;19.02;;;;;;;9.11;81.65;94550.34;4972373;28;20595;-63
2022/05/09 05:05:15;;;;;;;26.50;14.68;;;;;;;9.09;82.18;94549.94;4971749;28;20054;-61
2022/05/09 05:07:42;;;;;;;20.23;12.20;;;;;;;9.04;82.73;94547.59;4972453;28;20043;-64
2022/05/09 05:10:10;;;;;;;17.63;11.50;;;;;;;9.13;83.30;94549.94;4971970;28;20054;-64
2022/05/09 05:12:37;;;;;;;17.42;11.93;;;;;;;9.28;83.01;94550.75;4971999;28;20065;-61
2022/05/09 05:15:04;;;;;;;19.58;12.80;;;;;;;9.11;83.60;94549.56;4954375;28;20050;-60
2022/05/09 05:17:31;;;;;;;20.52;12.38;;;;;;;9.40;82.71;94553.88;4981493;28;20050;-60
2022/05/09 05:19:58;;;;;;;21.27;12.93;;;;;;;9.44;82.32;94559.34;4990947;28;20034;-64
2022/05/09 05:22:25;;;;;;;18.60;12.13;;;;;;;9.51;82.63;94553.84;4991463;28;20053;-61
2022/05/09 05:24:53;;;;;;;19.02;12.68;;;;;;;9.38;83.09;94555.44;4991400;28;20498;-63
2022/05/09 05:27:21;;;;;;;19.83;12.50;;;;;;;9.59;82.80;94558.13;4990873;28;20042;-63
2022/05/09 05:29:55;;;;;;;20.98;13.40;;;;;;;9.33;83.03;94561.28;4991357;28;20042;-61
2022/05/09 05:32:25;;;;;;;18.90;13.13;;;;;;;9.44;82.93;94559.34;4990373;28;20053;-61
2022/05/09 05:34:53;;;;;;;20.10;14.35;;;;;;;9.08;84.56;94566.78;4991371;28;20047;-60
2022/05/09 05:37:20;;;;;;;18.70;13.27;;;;;;;9.69;82.60;94566.75;4990769;28;20072;-60
2022/05/09 05:39:47;;;;;;;20.83;12.70;;;;;;;9.89;82.00;94562.41;4991116;28;20050;-63
2022/05/09 05:42:17;;;;;;;18.13;13.00;;;;;;;10.21;80.80;94567.03;4990496;28;20388;-64
2022/05/09 05:44:48;;;;;;;19.03;13.47;;;;;;;9.69;82.21;94569.50;4991119;28;20050;-61
2022/05/09 05:47:18;;;;;;;21.92;14.40;;;;;;;9.88;81.32;94574.56;4990640;28;20541;-61
2022/05/09 05:49:45;;;;;;;19.42;13.45;;;;;;;11.07;77.85;94579.59;4991106;28;20048;-62
2022/05/09 05:52:13;;;;;;;17.02;12.27;;;;;;;14.44;68.06;94571.72;4990361;28;20050;-64
2022/05/09 05:54:42;;;;;;;17.25;12.45;;;;;;;13.84;67.11;94571.66;4991036;28;20487;-61
2022/05/09 05:57:38;;;;;;;15.53;12.00;;;;;;;15.07;61.29;94579.94;4989695;28;20404;-62
2022/05/09 06:00:08;;;;;;;15.30;12.63;;;;;;;14.23;62.70;94586.75;4956115;28;20050;-59
2022/05/09 06:02:38;;;;;;;16.25;11.73;;;;;;;17.40;53.71;94578.59;4991009;28;20081;-61
2022/05/09 06:05:06;;;;;;;14.40;11.88;;;;;;;17.91;52.44;94581.38;4990376;28;20038;-63
2022/05/09 06:07:33;;;;;;;12.30;10.32;;;;;;;19.59;48.37;94579.31;4991109;28;20484;-61
2022/05/09 06:10:00;;;;;;;12.63;11.33;;;;;;;17.87;52.33;94577.19;4990383;28;20054;-59
2022/05/09 06:12:28;;;;;;;13.02;10.98;;;;;;;19.97;47.64;94578.25;4973715;28;20039;-59
2022/05/09 06:17:41;;;;;;;12.85;11.35;;;;;;;21.54;42.82;94570.56;4970488;28;20624;-59
2022/05/09 06:20:11;;;;;;;14.30;11.45;;;;;;;19.73;45.89;94576.00;4972561;28;20042;-60
2022/05/09 06:22:39;;;;;;;11.77;9.37;;;;;;;22.29;42.45;94568.94;4970366;28;20500;-60
2022/05/09 06:25:09;;;;;;;11.73;9.70;;;;;;;24.33;37.95;94573.22;4969767;28;20049;-61
2022/05/09 06:27:36;;;;;;;11.93;9.20;;;;;;;24.93;37.02;94568.06;4970328;28;20039;-59
2022/05/09 06:30:05;;;;;;;16.15;10.30;;;;;;;23.41;38.18;94575.13;4952852;28;20042;-60
2022/05/09 06:32:33;;;;;;;11.45;10.10;;;;;;;23.66;38.27;94568.16;4970386;28;20504;-60
2022/05/09 06:35:01;;;;;;;12.53;10.27;;;;;;;23.35;39.71;94576.31;4970403;28;20443;-61
2022/05/09 06:37:30;;;;;;;14.90;9.60;;;;;;;25.73;35.93;94575.97;4970751;28;20050;-61
2022/05/09 06:39:57;;;;;;;11.85;9.23;;;;;;;27.14;33.30;94579.50;4970775;28;20359;-61
2022/05/09 06:42:23;;;;;;;10.40;8.70;;;;;;;28.37;30.99;94578.03;4969887;28;21799;-61
2022/05/09 06:44:50;;;;;;;10.95;9.00;;;;;;;27.72;31.58;94584.75;4970782;28;20047;-60
2022/05/09 06:47:17;;;;;;;10.87;9.17;;;;;;;27.27;32.50;94581.91;4970242;28;20061;-63
2022/05/09 06:49:44;;;;;;;9.60;8.55;;;;;;;28.70;30.74;94575.63;4957969;28;20053;-60
2022/05/09 06:52:11;;;;;;;8.70;7.70;;;;;;;29.55;29.60;94578.78;4970195;28;20058;-60
2022/05/09 06:54:38;;;;;;;8.38;7.57;;;;;;;29.34;29.74;94576.34;4970751;28;20407;-62
2022/05/09 06:57:06;;;;;;;9.52;8.45;;;;;;;26.72;33.51;94577.59;4970183;28;20063;-60
2022/05/09 06:59:34;;;;;;;10.10;7.63;;;;;;;26.29;34.61;94584.78;4970597;28;20054;-60
2022/05/09 07:02:01;;;;;;;9.00;7.30;;;;;;;27.80;31.46;94579.34;4970205;28;20045;-65
2022/05/09 07:04:28;;;;;;;11.43;8.90;;;;;;;28.02;31.20;94585.00;4970842;28;20415;-65
2022/05/09 07:06:56;;;;;;;9.10;7.30;;;;;;;28.68;30.32;94579.72;4970896;28;20042;-61
2022/05/09 07:09:22;;;;;;;9.32;7.57;;;;;;;27.80;31.32;94576.53;4973568;28;20043;-62
2022/05/09 07:11:51;;;;;;;10.60;7.90;;;;;;;22.27;41.38;94585.44;4974430;28;20283;-59
2022/05/09 07:14:18;;;;;;;9.63;8.25;;;;;;;25.80;35.69;94586.75;4957149;28;20112;-60
2022/05/09 07:16:45;;;;;;;9.07;8.13;;;;;;;22.96;40.59;94598.72;4977492;28;20407;-60
2022/05/09 07:19:12;;;;;;;11.18;8.95;;;;;;;21.14;44.73;94593.16;4993432;28;20054;-66
2022/05/09 07:21:39;;;;;;;10.50;9.20;;;;;;;21.66;43.55;94602.34;4993838;28;20042;-60
2022/05/09 07:24:06;;;;;;;11.47;9.20;;;;;;;20.07;47.42;94590.94;4993257;28;20495;-65
2022/05/09 07:26:35;;;;;;;11.38;9.35;;;;;;;20.01;47.57;94592.03;4993783;28;20495;-60
2022/05/09 07:29:03;;;;;;;11.35;9.77;;;;;;;20.00;47.05;94596.03;4993165;28;20114;-62
2022/05/09 07:31:29;;;;;;;10.65;8.70;;;;;;;21.02;46.03;94594.88;4993939;28;20045;-59
2022/05/09 07:33:56;;;;;;;9.55;8.05;;;;;;;23.41;40.80;94583.53;4993691;28;20499;-60
2022/05/09 07:36:23;;;;;;;13.13;9.50;;;;;;;21.05;44.68;94601.56;4992470;28;20633;-62
2022/05/09 07:38:51;;;;;;;10.75;8.90;;;;;;;25.27;36.87;94588.88;4993639;28;20046;-60
2022/05/09 07:41:17;;;;;;;9.32;7.63;;;;;;;26.49;34.84;94588.75;4993094;28;20042;-62
2022/05/09 07:43:44;;;;;;;9.20;7.38;;;;;;;27.33;33.30;94591.13;4993479;28;20042;-64
2022/05/09 07:46:11;;;;;;;9.50;7.72;;;;;;;28.93;29.77;94581.94;4993007;28;20054;-60
2022/05/09 07:48:58;;;;;;;8.13;7.23;;;;;;;27.72;32.19;94584.75;4987564;28;20042;-58
2022/05/09 07:51:25;;;;;;;9.13;8.05;;;;;;;26.82;32.84;94581.72;4982315;28;20057;-60
2022/05/09 07:53:51;;;;;;;9.43;8.20;;;;;;;24.71;36.99;94588.25;4956565;28;20054;-64
2022/05/09 07:56:18;;;;;;;10.23;8.10;;;;;;;23.54;39.46;94594.44;4973314;28;20054;-61
2022/05/09 07:58:45;;;;;;;8.85;7.47;;;;;;;26.23;34.28;94584.00;4973924;28;20047;-60
2022/05/09 08:01:11;;;;;;;9.23;7.37;;;;;;;24.55;37.13;94583.97;4955954;28;20096;-62
2022/05/09 08:03:39;;;;;;;8.43;7.53;;;;;;;28.21;30.77;94576.00;4973556;28;20047;-60
2022/05/09 08:06:06;;;;;;;9.40;7.50;;;;;;;27.41;31.68;94574.47;4972996;28;20058;-60
2022/05/09 08:08:36;;;;;;;8.60;6.70;;;;;;;28.91;30.01;94578.88;4973457;28;20419;-61
2022/05/09 08:11:11;;;;;;;8.95;6.88;;;;;;;26.42;33.23;94577.94;4972704;28;20050;-61
2022/05/09 08:13:41;;;;;;;7.50;6.70;;;;;;;25.66;34.53;94596.88;4973505;28;20439;-61
2022/05/09 08:16:08;;;;;;;8.90;7.30;;;;;;;23.43;38.16;94592.22;4972558;28;20051;-60
2022/05/09 08:18:35;;;;;;;10.15;7.68;;;;;;;24.13;36.98;94588.00;4991305;28;20048;-62
2022/05/09 08:21:03;;;;;;;7.93;6.63;;;;;;;26.44;33.67;94586.66;4991262;28;20050;-62
2022/05/09 08:23:31;;;;;;;8.15;7.25;;;;;;;27.47;31.69;94589.34;4992583;28;20043;-60
2022/05/09 08:26:02;;;;;;;8.70;7.80;;;;;;;23.74;37.12;94593.75;4992248;28;20561;-65
2022/05/09 08:28:29;;;;;;;7.47;6.47;;;;;;;27.00;32.83;94592.53;4992441;28;20450;-62
2022/05/09 08:30:57;;;;;;;7.80;7.00;;;;;;;26.27;33.27;94589.41;4992662;28;20502;-63
2022/05/09 08:33:28;;;;;;;7.82;6.57;;;;;;;29.16;28.26;94577.75;4958675;28;20049;-61
2022/05/09 08:35:55;;;;;;;7.93;6.20;;;;;;;30.47;26.24;94583.91;4992191;28;20073;-66
2022/05/09 08:38:23;;;;;;;7.57;6.17;;;;;;;32.24;24.84;94581.72;4991682;28;21590;-61
2022/05/09 08:40:55;;;;;;;7.57;6.57;;;;;;;24.59;34.33;94586.56;4992136;28;20050;-61
2022/05/09 08:43:45;;;;;;;8.18;6.75;;;;;;;27.15;31.52;94586.69;4991551;28;21497;-62
2022/05/09 08:46:22;;;;;;;8.20;6.90;;;;;;;24.50;35.21;94595.88;4991719;28;20054;-60
2022/05/09 08:49:34;;;;;;;6.55;5.85;;;;;;;30.02;27.55;94585.09;4988313;28;20506;-60
2022/05/09 08:52:14;;;;;;;7.67;6.20;;;;;;;33.01;24.24;94574.31;4990524;28;20046;-65
2022/05/09 08:54:41;;;;;;;7.10;5.90;;;;;;;32.12;24.57;94591.75;4991631;28;20042;-66
2022/05/09 08:57:21;;;;;;;8.15;6.20;;;;;;;27.46;30.09;94597.03;4991606;28;20048;-63
2022/05/09 09:00:12;;;;;;;6.85;5.88;;;;;;;30.83;25.18;94592.25;4992018;28;20057;-60
2022/05/09 09:02:45;;;;;;;6.90;6.20;;;;;;;25.91;31.92;94589.66;4991097;28;21822;-67
2022/05/09 09:05:19;;;;;;;8.90;6.30;;;;;;;25.51;33.04;94596.22;4991496;28;20058;-60
2022/05/09 09:08:04;;;;;;;7.38;6.55;;;;;;;23.67;35.69;94591.34;4991754;28;20050;-67
2022/05/09 09:10:37;;;;;;;6.70;6.00;;;;;;;25.62;32.75;94587.13;4990650;28;20395;-65
2022/05/09 09:13:26;;;;;;;7.70;6.30;;;;;;;26.23;31.65;94583.22;4991281;28;20046;-60
2022/05/09 09:16:20;;;;;;;7.25;6.10;;;;;;;25.86;31.68;94584.00;4991637;28;20114;-59
2022/05/09 09:19:08;;;;;;;6.77;5.67;;;;;;;24.73;34.01;94582.91;4953916;28;21495;-63
2022/05/09 09:21:44;;;;;;;7.47;6.43;;;;;;;24.21;34.83;94593.97;4971048;28;20655;-60
2022/05/09 09:24:38;;;;;;;7.53;6.30;;;;;;;23.81;35.44;94590.56;4971748;28;20042;-62
2022/05/09 09:27:21;;;;;;;7.20;6.10;;;;;;;24.05;34.93;94593.22;4971665;28;20058;-61
2022/05/09 09:29:54;;;;;;;7.68;5.72;;;;;;;23.84;35.67;94591.63;4954798;28;20057;-59
2022/05/09 09:32:22;;;;;;;8.30;5.90;;;;;;;26.44;30.97;94583.84;4971540;28;20042;-62
2022/05/09 09:35:04;;;;;;;6.10;5.45;;;;;;;29.18;28.40;94577.97;4971973;28;20043;-64
2022/05/09 09:37:52;;;;;;;8.43;5.65;;;;;;;28.75;28.37;94583.31;4970842;28;20675;-60
2022/05/09 09:40:20;;;;;;;8.85;5.53;;;;;;;27.58;29.84;94586.53;4971258;28;20535;-60
2022/05/09 09:42:52;;;;;;;7.07;5.47;;;;;;;28.59;28.22;94577.19;4971855;28;20046;-61
2022/05/09 09:45:54;;;;;;;7.17;5.30;;;;;;;26.99;29.99;94588.19;4971430;28;20073;-63
2022/05/09 09:48:23;;;;;;;6.88;5.70;;;;;;;25.94;31.83;94587.13;4971633;28;20430;-60
2022/05/09 09:50:56;;;;;;;7.45;5.70;;;;;;;26.46;30.50;94586.94;4981377;28;20436;-60
2022/05/09 09:53:38;;;;;;;6.68;5.93;;;;;;;22.45;37.60;94589.34;4970759;28;20743;-64
2022/05/09 09:56:25;;;;;;;7.90;6.10;;;;;;;22.68;37.33;94594.16;4970925;28;20412;-60
2022/05/09 09:59:15;;;;;;;7.60;6.07;;;;;;;23.08;36.99;94598.50;4971563;28;20046;-59
2022/05/09 10:01:43;;;;;;;7.38;6.68;;;;;;;20.59;41.93;94598.78;4953237;28;20065;-65
2022/05/09 10:04:14;;;;;;;8.38;7.25;;;;;;;20.35;42.44;94600.13;4954074;28;20549;-60
2022/05/09 10:07:08;;;;;;;9.82;6.65;;;;;;;20.68;41.87;94604.34;4971561;28;20043;-61
2022/05/09 10:09:46;;;;;;;8.35;6.82;;;;;;;19.73;43.69;94611.44;4970696;28;20466;-61
2022/05/09 10:12:14;;;;;;;8.13;6.77;;;;;;;23.06;35.07;94605.81;4953409;28;20042;-60
2022/05/09 10:14:41;;;;;;;6.78;5.38;;;;;;;26.47;30.35;94583.63;4971240;28;20057;-63
2022/05/09 10:17:26;;;;;;;6.53;5.47;;;;;;;27.52;28.88;94587.81;4979345;28;20043;-60
2022/05/09 10:19:55;;;;;;;8.13;6.00;;;;;;;25.83;30.98;94587.78;4970065;28;20073;-61
2022/05/09 10:25:28;;;;;;;7.57;5.83;;;;;;;26.05;31.51;94575.97;4970168;28;21429;-60
2022/05/09 10:28:10;;;;;;;6.93;6.07;;;;;;;25.97;30.70;94572.06;4970926;28;20057;-60
2022/05/09 10:30:42;;;;;;;7.60;6.00;;;;;;;25.47;32.36;94571.19;4969037;28;20053;-63
2022/05/09 10:33:38;;;;;;;7.22;5.43;;;;;;;27.70;29.48;94578.84;4970561;28;20058;-65
2022/05/09 10:36:09;;;;;;;7.47;6.20;;;;;;;23.23;35.37;94573.31;4970593;28;20361;-65
2022/05/09 10:38:41;;;;;;;9.00;6.03;;;;;;;22.88;36.69;94575.97;4970876;28;20050;-60
2022/05/09 10:41:40;;;;;;;7.90;6.40;;;;;;;24.74;34.93;94572.44;4970071;28;20049;-64
2022/05/09 10:44:49;;;;;;;7.03;6.10;;;;;;;26.33;31.33;94555.66;4961133;28;20053;-61
2022/05/09 10:47:37;;;;;;;7.13;6.22;;;;;;;23.86;36.02;94567.44;4959861;28;20051;-60
2022/05/09 10:50:39;;;;;;;7.50;6.38;;;;;;;24.07;35.82;94565.47;4976794;28;20062;-59
2022/05/09 10:53:20;;;;;;;7.13;6.43;;;;;;;23.27;36.69;94561.91;4968498;28;20055;-60
2022/05/09 10:55:56;;;;;;;9.05;7.00;;;;;;;22.91;37.30;94567.34;4977286;28;20060;-60
2022/05/09 10:58:35;;;;;;;8.43;6.60;;;;;;;22.24;38.40;94569.63;4976218;28;20613;-59
2022/05/09 11:01:22;;;;;;;8.18;6.90;;;;;;;20.37;41.89;94568.25;4977052;28;20057;-60
2022/05/09 11:03:53;;;;;;;9.15;6.45;;;;;;;21.55;40.10;94562.97;4977402;28;20061;-59
2022/05/09 11:06:44;;;;;;;9.43;6.43;;;;;;;22.56;37.34;94558.03;4976452;28;20042;-61
2022/05/09 11:09:32;;;;;;;9.25;7.68;;;;;;;21.32;40.06;94558.84;4976825;28;20047;-63
2022/05/09 11:12:12;;;;;;;8.15;6.35;;;;;;;21.28;41.34;94558.22;4976375;28;20065;-59
2022/05/09 11:15:00;;;;;;;9.65;6.40;;;;;;;21.62;40.35;94559.84;4977275;28;20057;-59
2022/05/09 11:17:57;;;;;;;9.55;6.57;;;;;;;21.34;40.78;94551.53;4985013;28;21606;-59
2022/05/09 11:20:50;;;;;;;9.50;7.00;;;;;;;20.33;43.50;94554.44;4988616;28;20034;-59
2022/05/09 11:23:38;;;;;;;10.93;7.00;;;;;;;20.41;42.99;94558.47;4987636;28;20047;-63
2022/05/09 11:26:13;;;;;;;9.80;7.07;;;;;;;20.65;42.12;94553.09;4976642;28;20055;-59
2022/05/09 11:28:56;;;;;;;9.10;7.07;;;;;;;19.61;43.10;94551.81;4976993;28;20057;-60
2022/05/09 11:31:41;;;;;;;10.13;6.88;;;;;;;19.80;42.93;94557.44;4976892;28;20054;-65
2022/05/09 11:34:49;;;;;;;9.27;6.17;;;;;;;20.18;41.18;94557.06;4976476;28;20066;-59
2022/05/09 11:37:36;;;;;;;8.73;6.95;;;;;;;20.11;41.90;94554.59;4976475;28;20050;-63
2022/05/09 11:40:31;;;;;;;7.88;6.85;;;;;;;20.75;41.28;94548.28;4962895;28;20394;-62
2022/05/09 11:46:13;;;;;;;9.70;7.70;;;;;;;19.40;44.13;94561.78;4976972;28;20055;-60
2022/05/09 11:48:59;;;;;;;10.17;7.13;;;;;;;20.11;42.37;94547.00;4976151;28;20217;-59
2022/05/09 11:51:47;;;;;;;9.30;6.95;;;;;;;21.37;40.16;94541.47;4975884;28;20310;-62
2022/05/09 11:54:17;;;;;;;8.73;6.70;;;;;;;20.02;42.73;94541.44;4973930;28;20047;-63
2022/05/09 11:56:49;;;;;;;9.82;7.43;;;;;;;19.09;44.21;94551.41;4973528;28;20415;-59
2022/05/09 11:59:35;;;;;;;10.13;7.25;;;;;;;19.56;43.63;94550.41;4973162;28;20092;-63
2022/05/09 12:02:43;;;;;;;9.53;6.87;;;;;;;20.02;41.74;94551.78;4940363;28;20065;-60
2022/05/09 12:05:25;;;;;;;9.20;6.88;;;;;;;21.46;39.89;94538.66;4973011;28;20085;-61
2022/05/09 12:07:56;;;;;;;8.88;7.00;;;;;;;21.94;38.76;94540.75;4973607;28;20042;-60